createdAt,value
2022-12-24T00:00:51.149Z,6.35
2022-12-24T00:03:24.532Z,6.34
2022-12-24T00:05:56.396Z,6.35
2022-12-24T00:08:28.276Z,6.33
2022-12-24T00:11:00.404Z,6.30
2022-12-24T00:13:32.298Z,6.27
2022-12-24T00:16:04.458Z,6.24
2022-12-24T00:18:41.552Z,6.23
2022-12-24T00:21:17.215Z,6.22
2022-12-24T00:23:49.070Z,6.21
2022-12-24T00:26:20.996Z,6.21
2022-12-24T00:28:53.400Z,6.22
2022-12-24T00:31:25.335Z,6.25
2022-12-24T00:33:57.437Z,6.30
2022-12-24T00:36:29.246Z,6.31
2022-12-24T00:39:01.077Z,6.29
2022-12-24T00:41:33.268Z,6.25
2022-12-24T00:44:10.022Z,6.21
2022-12-24T00:46:43.143Z,6.16
2022-12-24T00:49:15.387Z,6.18
2022-12-24T00:51:47.211Z,6.21
2022-12-24T00:54:19.057Z,6.21
2022-12-24T00:56:50.869Z,6.16
2022-12-24T00:59:22.707Z,6.15
2022-12-24T01:01:54.627Z,6.14
2022-12-24T01:04:44.042Z,6.16
2022-12-24T01:07:15.930Z,6.18
2022-12-24T01:09:47.833Z,6.20
2022-12-24T01:12:19.642Z,6.20
2022-12-24T01:14:51.622Z,6.19
2022-12-24T01:17:23.431Z,6.16
2022-12-24T01:19:55.430Z,6.15
2022-12-24T01:22:27.472Z,6.15
2022-12-24T01:24:59.337Z,6.16
2022-12-24T01:27:31.150Z,6.15
2022-12-24T01:30:03.292Z,6.16
2022-12-24T01:32:35.200Z,6.17
2022-12-24T01:35:10.443Z,6.14
2022-12-24T01:37:43.366Z,6.13
2022-12-24T01:40:36.866Z,6.09
2022-12-24T01:43:28.667Z,6.05
2022-12-24T01:46:02.710Z,6.02
2022-12-24T01:48:41.769Z,6.00
2022-12-24T01:51:20.574Z,5.99
2022-12-24T01:53:56.657Z,5.97
2022-12-24T01:56:30.391Z,5.97
2022-12-24T01:59:07.675Z,5.97
2022-12-24T02:01:40.048Z,5.94
2022-12-24T02:04:25.905Z,5.90
2022-12-24T02:06:57.982Z,5.90
2022-12-24T02:09:30.267Z,5.90
2022-12-24T02:12:03.070Z,5.87
2022-12-24T02:14:36.029Z,5.80
2022-12-24T02:17:19.678Z,5.82
2022-12-24T02:20:26.426Z,5.81
2022-12-24T02:23:25.263Z,5.79
2022-12-24T02:26:15.466Z,5.82
2022-12-24T02:29:12.621Z,5.82
2022-12-24T02:31:48.957Z,5.82
2022-12-24T02:34:30.627Z,5.80
2022-12-24T02:37:08.036Z,5.77
2022-12-24T02:39:46.624Z,5.78
2022-12-24T02:42:23.466Z,5.81
2022-12-24T02:44:59.713Z,5.75
2022-12-24T02:47:34.031Z,5.69
2022-12-24T02:50:13.687Z,5.68
2022-12-24T02:52:47.729Z,5.67
2022-12-24T02:55:23.208Z,5.68
2022-12-24T02:58:11.958Z,5.70
2022-12-24T03:01:17.289Z,5.72
2022-12-24T03:04:08.425Z,5.76
2022-12-24T03:06:47.924Z,5.81
2022-12-24T03:09:26.628Z,5.80
2022-12-24T03:12:05.662Z,5.78
2022-12-24T03:14:38.303Z,5.76
2022-12-24T03:17:11.493Z,5.76
2022-12-24T03:19:43.582Z,5.78
2022-12-24T03:22:17.199Z,5.78
2022-12-24T03:24:49.123Z,5.77
2022-12-24T03:27:21.525Z,5.79
2022-12-24T03:29:53.790Z,5.84
2022-12-24T03:32:29.907Z,5.87
2022-12-24T03:35:02.006Z,5.89
2022-12-24T03:37:33.835Z,5.88
2022-12-24T03:40:06.443Z,5.82
2022-12-24T03:42:44.460Z,5.81
2022-12-24T03:45:16.434Z,5.81
2022-12-24T03:47:48.304Z,5.82
2022-12-24T03:50:20.215Z,5.80
2022-12-24T03:52:58.528Z,5.79
2022-12-24T03:55:30.567Z,5.75
2022-12-24T03:58:02.472Z,5.72
2022-12-24T04:00:34.572Z,5.78
2022-12-24T04:03:06.538Z,5.82
2022-12-24T04:05:38.394Z,5.84
2022-12-24T04:08:10.255Z,5.85
2022-12-24T04:10:42.059Z,5.85
2022-12-24T04:13:14.327Z,5.85
2022-12-24T04:15:46.127Z,5.82
2022-12-24T04:18:17.943Z,5.77
2022-12-24T04:20:49.680Z,5.81
2022-12-24T04:23:21.867Z,5.85
2022-12-24T04:25:53.779Z,5.85
2022-12-24T04:28:25.567Z,5.81
2022-12-24T04:31:02.314Z,5.80
2022-12-24T04:33:34.635Z,5.78
2022-12-24T04:36:08.053Z,5.77
2022-12-24T04:38:39.976Z,5.81
2022-12-24T04:41:22.630Z,5.83
2022-12-24T04:43:56.923Z,5.88
2022-12-24T04:46:31.573Z,5.91
2022-12-24T04:49:03.380Z,5.86
2022-12-24T04:51:35.560Z,5.84
2022-12-24T04:54:07.604Z,5.83
2022-12-24T04:56:39.440Z,5.87
2022-12-24T04:59:11.397Z,5.89
2022-12-24T05:01:43.841Z,5.89
2022-12-24T05:04:15.743Z,5.84
2022-12-24T05:06:47.610Z,5.78
2022-12-24T05:09:19.401Z,5.76
2022-12-24T05:11:51.224Z,5.74
2022-12-24T05:14:23.090Z,5.78
2022-12-24T05:16:55.063Z,5.80
2022-12-24T05:19:26.959Z,5.78
2022-12-24T05:22:16.405Z,5.78
2022-12-24T05:25:05.494Z,5.78
2022-12-24T05:27:37.563Z,5.76
2022-12-24T05:30:15.351Z,5.70
2022-12-24T05:32:47.179Z,5.70
2022-12-24T05:35:19.057Z,5.74
2022-12-24T05:37:50.824Z,5.72
2022-12-24T05:40:29.083Z,5.71
2022-12-24T05:43:00.998Z,5.72
2022-12-24T05:45:33.091Z,5.75
2022-12-24T05:48:05.095Z,5.78
2022-12-24T05:50:37.337Z,5.73
2022-12-24T05:53:10.348Z,5.71
2022-12-24T05:55:42.299Z,5.70
2022-12-24T05:58:14.395Z,5.69
2022-12-24T06:00:46.253Z,5.62
2022-12-24T06:03:18.167Z,5.57
2022-12-24T06:05:49.906Z,5.57
2022-12-24T06:08:21.696Z,5.54
2022-12-24T06:10:59.425Z,5.48
2022-12-24T06:13:32.264Z,5.42
2022-12-24T06:16:06.372Z,5.41
2022-12-24T06:18:38.939Z,5.40
2022-12-24T06:21:11.210Z,5.36
2022-12-24T06:23:45.282Z,5.35
2022-12-24T06:26:20.447Z,5.36
2022-12-24T06:28:52.742Z,5.37
2022-12-24T06:31:25.840Z,5.35
2022-12-24T06:33:57.649Z,5.29
2022-12-24T06:36:29.505Z,5.29
2022-12-24T06:39:01.462Z,5.31
2022-12-24T06:41:33.261Z,5.31
2022-12-24T06:44:05.221Z,5.32
2022-12-24T06:46:37.120Z,5.34
2022-12-24T06:49:09.471Z,5.36
2022-12-24T06:51:41.771Z,5.35
2022-12-24T06:54:13.525Z,5.38
2022-12-24T06:56:45.397Z,5.40
2022-12-24T06:59:17.167Z,5.38
2022-12-24T07:01:49.218Z,5.37
2022-12-24T07:04:21.401Z,5.37
2022-12-24T07:06:53.262Z,5.37
2022-12-24T07:09:25.149Z,5.37
2022-12-24T07:11:57.081Z,5.36
2022-12-24T07:14:28.912Z,5.35
2022-12-24T07:17:00.949Z,5.35
2022-12-24T07:19:34.300Z,5.37
2022-12-24T07:22:11.757Z,5.36
2022-12-24T07:24:46.948Z,5.36
2022-12-24T07:27:19.003Z,5.41
2022-12-24T07:29:50.831Z,5.45
2022-12-24T07:32:22.901Z,5.47
2022-12-24T07:34:54.630Z,5.48
2022-12-24T07:37:27.247Z,5.48
2022-12-24T07:39:59.054Z,5.50
2022-12-24T07:42:30.924Z,5.52
2022-12-24T07:45:02.776Z,5.56
2022-12-24T07:47:35.878Z,5.54
2022-12-24T07:50:17.380Z,5.51
2022-12-24T07:52:49.308Z,5.52
2022-12-24T07:55:21.083Z,5.60
2022-12-24T07:57:52.957Z,5.67
2022-12-24T08:00:28.513Z,5.68
2022-12-24T08:03:01.258Z,5.70
2022-12-24T08:05:37.047Z,5.74
2022-12-24T08:08:08.951Z,5.74
2022-12-24T08:10:43.338Z,5.76
2022-12-24T08:13:15.258Z,5.75
2022-12-24T08:15:47.656Z,5.74
2022-12-24T08:18:19.621Z,5.73
2022-12-24T08:20:52.036Z,5.72
2022-12-24T08:23:24.309Z,5.72
2022-12-24T08:25:56.136Z,5.72
2022-12-24T08:28:28.025Z,5.73
2022-12-24T08:31:00.177Z,5.73
2022-12-24T08:33:32.323Z,5.74
2022-12-24T08:36:04.857Z,5.71
2022-12-24T08:38:36.931Z,5.69
2022-12-24T08:41:08.826Z,5.65
2022-12-24T08:43:40.608Z,5.62
2022-12-24T08:46:12.552Z,5.63
2022-12-24T08:48:44.486Z,5.63
2022-12-24T08:51:16.298Z,5.68
2022-12-24T08:53:48.173Z,5.75
2022-12-24T08:56:20.067Z,5.81
2022-12-24T08:58:52.104Z,5.80
2022-12-24T09:01:24.581Z,5.83
2022-12-24T09:03:56.445Z,5.89
2022-12-24T09:06:28.277Z,5.91
2022-12-24T09:09:00.351Z,5.92
2022-12-24T09:11:32.215Z,5.93
2022-12-24T09:14:04.304Z,6.00
2022-12-24T09:16:36.217Z,6.03
2022-12-24T09:19:08.059Z,6.06
2022-12-24T09:21:39.908Z,6.05
2022-12-24T09:24:12.040Z,6.07
2022-12-24T09:26:46.001Z,6.07
2022-12-24T09:29:18.437Z,6.06
2022-12-24T09:31:50.241Z,6.01
2022-12-24T09:34:28.224Z,6.04
2022-12-24T09:37:03.206Z,6.09
2022-12-24T09:39:35.176Z,6.01
2022-12-24T09:42:17.871Z,5.93
2022-12-24T09:44:55.553Z,5.89
2022-12-24T09:47:33.936Z,5.87
2022-12-24T09:50:21.888Z,5.85
2022-12-24T09:53:03.959Z,5.87
2022-12-24T09:55:45.540Z,5.96
2022-12-24T09:58:21.544Z,5.98
2022-12-24T10:00:54.875Z,5.98
2022-12-24T10:03:26.851Z,5.99
2022-12-24T10:06:08.265Z,6.08
2022-12-24T10:08:53.458Z,6.22
2022-12-24T10:11:30.928Z,6.31
2022-12-24T10:14:14.604Z,6.38
2022-12-24T10:16:54.328Z,6.41
2022-12-24T10:19:35.388Z,6.38
2022-12-24T10:22:15.815Z,6.37
2022-12-24T10:24:55.700Z,6.37
2022-12-24T10:27:31.826Z,6.32
2022-12-24T10:30:17.492Z,6.30
2022-12-24T10:32:52.089Z,6.38
2022-12-24T10:35:27.868Z,6.46
2022-12-24T10:37:59.712Z,6.53
2022-12-24T10:40:39.102Z,6.61
2022-12-24T10:43:17.609Z,6.64
2022-12-24T10:45:54.663Z,6.55
2022-12-24T10:48:31.574Z,6.49
2022-12-24T10:51:07.814Z,6.46
2022-12-24T10:53:47.430Z,6.47
2022-12-24T10:56:21.747Z,6.55
2022-12-24T10:58:57.108Z,6.64
2022-12-24T11:01:48.223Z,6.72
2022-12-24T11:04:19.886Z,6.73
2022-12-24T11:07:00.259Z,6.75
2022-12-24T11:09:34.029Z,6.76
2022-12-24T11:12:16.054Z,6.71
2022-12-24T11:14:48.362Z,6.74
2022-12-24T11:17:24.460Z,6.76
2022-12-24T11:19:56.857Z,6.80
2022-12-24T11:22:30.715Z,6.72
2022-12-24T11:25:07.469Z,6.67
2022-12-24T11:27:49.803Z,6.62
2022-12-24T11:30:27.625Z,6.59
2022-12-24T11:33:21.586Z,6.49
2022-12-24T11:36:01.880Z,6.39
2022-12-24T11:38:36.240Z,6.29
2022-12-24T11:41:11.618Z,6.24
2022-12-24T11:43:46.563Z,6.22
2022-12-24T11:46:22.555Z,6.18
2022-12-24T11:49:14.747Z,6.24
2022-12-24T11:52:03.958Z,6.33
2022-12-24T11:54:44.251Z,6.34
2022-12-24T11:57:19.756Z,6.33
2022-12-24T11:59:52.888Z,6.31
2022-12-24T12:02:29.518Z,6.29
2022-12-24T12:05:06.398Z,6.27
2022-12-24T12:07:40.061Z,6.29
2022-12-24T12:10:19.811Z,6.25
2022-12-24T12:13:06.377Z,6.21
2022-12-24T12:15:45.601Z,6.14
2022-12-24T12:18:21.937Z,6.15
2022-12-24T12:20:59.119Z,6.13
2022-12-24T12:23:35.478Z,6.15
2022-12-24T12:26:13.703Z,6.13
2022-12-24T12:28:50.685Z,6.14
2022-12-24T12:31:27.661Z,6.19
2022-12-24T12:34:04.733Z,6.12
2022-12-24T12:36:41.475Z,6.07
2022-12-24T12:39:14.128Z,6.02
2022-12-24T12:42:04.503Z,6.05
2022-12-24T12:44:56.889Z,6.05
2022-12-24T12:47:43.573Z,6.00
2022-12-24T12:50:28.123Z,5.94
2022-12-24T12:53:30.638Z,5.90
2022-12-24T12:56:15.392Z,5.90
2022-12-24T12:58:54.843Z,5.91
2022-12-24T13:01:33.261Z,5.93
2022-12-24T13:04:38.334Z,5.96
2022-12-24T13:07:37.485Z,6.01
2022-12-24T13:10:50.645Z,5.99
2022-12-24T13:14:04.787Z,5.97
2022-12-24T13:16:54.768Z,5.97
2022-12-24T13:19:39.871Z,6.05
2022-12-24T13:22:19.563Z,6.08
2022-12-24T13:24:53.810Z,6.16
2022-12-24T13:27:30.611Z,6.22
2022-12-24T13:30:09.759Z,6.26
2022-12-24T13:32:54.700Z,6.33
2022-12-24T13:36:00.926Z,6.40
2022-12-24T13:38:44.871Z,6.43
2022-12-24T13:41:56.711Z,6.29
2022-12-24T13:44:36.152Z,6.16
2022-12-24T13:47:32.299Z,6.13
2022-12-24T13:50:32.950Z,6.14
2022-12-24T13:53:05.387Z,6.09
2022-12-24T13:55:37.531Z,6.05
2022-12-24T13:58:19.167Z,5.99
2022-12-24T14:00:59.740Z,5.94
2022-12-24T14:03:35.934Z,5.98
2022-12-24T14:06:11.521Z,6.05
2022-12-24T14:08:47.153Z,6.09
2022-12-24T14:11:21.484Z,6.12
2022-12-24T14:14:14.017Z,6.11
2022-12-24T14:16:50.001Z,6.08
2022-12-24T14:19:24.994Z,6.04
2022-12-24T14:22:05.218Z,6.00
2022-12-24T14:24:39.658Z,6.06
2022-12-24T14:27:19.720Z,6.10
2022-12-24T14:29:57.068Z,6.07
2022-12-24T14:32:37.721Z,6.09
2022-12-24T14:35:16.380Z,6.13
2022-12-24T14:37:50.820Z,6.17
2022-12-24T14:40:27.543Z,6.21
2022-12-24T14:43:06.410Z,6.29
2022-12-24T14:45:46.356Z,6.34
2022-12-24T14:48:26.914Z,6.37
2022-12-24T14:51:11.129Z,6.33
2022-12-24T14:54:06.592Z,6.37
2022-12-24T14:56:38.465Z,6.40
2022-12-24T14:59:19.841Z,6.44
2022-12-24T15:01:51.893Z,6.50
2022-12-24T15:04:23.850Z,6.54
2022-12-24T15:06:59.537Z,6.53
2022-12-24T15:09:34.630Z,6.52
2022-12-24T15:12:13.671Z,6.47
2022-12-24T15:14:46.791Z,6.42
2022-12-24T15:17:19.187Z,6.41
2022-12-24T15:19:54.011Z,6.40
2022-12-24T15:22:29.491Z,6.36
2022-12-24T15:25:01.361Z,6.29
2022-12-24T15:27:41.543Z,6.26
2022-12-24T15:30:25.322Z,6.17
2022-12-24T15:32:58.511Z,6.11
2022-12-24T15:35:35.215Z,6.12
2022-12-24T15:38:08.556Z,6.15
2022-12-24T15:40:40.359Z,6.19
2022-12-24T15:43:12.166Z,6.25
2022-12-24T15:45:48.402Z,6.30
2022-12-24T15:48:23.995Z,6.33
2022-12-24T15:50:58.772Z,6.36
2022-12-24T15:53:34.398Z,6.35
2022-12-24T15:56:10.237Z,6.36
2022-12-24T15:58:43.512Z,6.33
2022-12-24T16:01:29.670Z,6.30
2022-12-24T16:04:02.519Z,6.31
2022-12-24T16:06:54.419Z,6.33
2022-12-24T16:09:48.837Z,6.33
2022-12-24T16:12:23.570Z,6.18
2022-12-24T16:14:58.679Z,6.10
2022-12-24T16:17:34.035Z,6.09
2022-12-24T16:20:26.201Z,6.11
2022-12-24T16:22:58.229Z,6.13
2022-12-24T16:25:31.116Z,6.15
2022-12-24T16:28:06.900Z,6.17
2022-12-24T16:30:41.829Z,6.23
2022-12-24T16:33:18.660Z,6.22
2022-12-24T16:35:51.026Z,6.22
2022-12-24T16:38:22.787Z,6.27
2022-12-24T16:40:55.013Z,6.32
2022-12-24T16:43:44.283Z,6.38
2022-12-24T16:46:16.367Z,6.39
2022-12-24T16:48:50.101Z,6.44
2022-12-24T16:51:21.958Z,6.48
2022-12-24T16:53:53.802Z,6.52
2022-12-24T16:56:26.289Z,6.56
2022-12-24T16:58:58.111Z,6.58
2022-12-24T17:01:30.023Z,6.57
2022-12-24T17:04:01.933Z,6.60
2022-12-24T17:06:33.821Z,6.64
2022-12-24T17:09:05.926Z,6.65
2022-12-24T17:11:37.858Z,6.64
2022-12-24T17:14:18.058Z,6.66
2022-12-24T17:16:52.156Z,6.67
2022-12-24T17:19:24.003Z,6.69
2022-12-24T17:21:55.880Z,6.68
2022-12-24T17:24:27.626Z,6.63
2022-12-24T17:26:59.970Z,6.65
2022-12-24T17:29:31.910Z,6.67
2022-12-24T17:32:03.789Z,6.66
2022-12-24T17:34:35.768Z,6.66
2022-12-24T17:37:07.627Z,6.64
2022-12-24T17:39:39.529Z,6.64
2022-12-24T17:42:11.333Z,6.64
2022-12-24T17:44:43.147Z,6.62
2022-12-24T17:47:15.000Z,6.52
2022-12-24T17:49:46.993Z,6.50
2022-12-24T17:52:18.839Z,6.52
2022-12-24T17:54:50.983Z,6.50
2022-12-24T17:57:22.873Z,6.50
2022-12-24T17:59:54.772Z,6.54
2022-12-24T18:02:26.762Z,6.59
2022-12-24T18:04:58.976Z,6.61
2022-12-24T18:07:30.864Z,6.63
2022-12-24T18:10:04.763Z,6.67
2022-12-24T18:12:44.723Z,6.71
2022-12-24T18:15:19.123Z,6.71
2022-12-24T18:17:55.161Z,6.61
2022-12-24T18:20:30.084Z,6.59
2022-12-24T18:23:02.096Z,6.64
2022-12-24T18:25:33.915Z,6.68
2022-12-24T18:28:05.909Z,6.72
2022-12-24T18:30:37.953Z,6.77
2022-12-24T18:33:09.794Z,6.79
2022-12-24T18:35:41.572Z,6.83
2022-12-24T18:38:13.453Z,6.80
2022-12-24T18:40:45.321Z,6.79
2022-12-24T18:43:17.615Z,6.77
2022-12-24T18:45:49.901Z,6.79
2022-12-24T18:48:21.901Z,6.81
2022-12-24T18:50:59.505Z,6.84
2022-12-24T18:53:31.332Z,6.84
2022-12-24T18:56:07.720Z,6.83
2022-12-24T18:58:41.177Z,6.79
2022-12-24T19:01:18.274Z,6.75
2022-12-24T19:03:50.769Z,6.66
2022-12-24T19:06:23.545Z,6.61
2022-12-24T19:08:57.669Z,6.55
2022-12-24T19:11:32.007Z,6.50
2022-12-24T19:14:05.324Z,6.49
2022-12-24T19:16:38.659Z,6.44
2022-12-24T19:19:12.381Z,6.48
2022-12-24T19:21:44.156Z,6.53
2022-12-24T19:24:16.016Z,6.59
2022-12-24T19:26:48.822Z,6.64
2022-12-24T19:29:21.056Z,6.70
2022-12-24T19:31:52.961Z,6.75
2022-12-24T19:34:24.982Z,6.78
2022-12-24T19:36:56.836Z,6.77
2022-12-24T19:39:32.138Z,6.77
2022-12-24T19:42:04.461Z,6.78
2022-12-24T19:44:36.312Z,6.79
2022-12-24T19:47:08.256Z,6.81
2022-12-24T19:49:40.091Z,6.82
2022-12-24T19:52:11.888Z,6.84
2022-12-24T19:54:43.801Z,6.85
2022-12-24T19:57:15.621Z,6.87
2022-12-24T19:59:47.806Z,6.89
2022-12-24T20:02:20.278Z,6.82
2022-12-24T20:04:52.874Z,6.75
2022-12-24T20:07:24.645Z,6.73
2022-12-24T20:09:56.550Z,6.78
2022-12-24T20:12:28.323Z,6.81
2022-12-24T20:15:00.397Z,6.86
2022-12-24T20:17:32.226Z,6.87
2022-12-24T20:20:04.218Z,6.88
2022-12-24T20:22:36.033Z,6.92
2022-12-24T20:25:09.424Z,6.95
2022-12-24T20:27:41.383Z,6.96
2022-12-24T20:30:28.557Z,6.96
2022-12-24T20:33:00.665Z,6.92
2022-12-24T20:35:34.849Z,6.90
2022-12-24T20:38:06.725Z,6.91
2022-12-24T20:40:42.787Z,6.91
2022-12-24T20:43:16.697Z,6.91
2022-12-24T20:45:53.317Z,6.94
2022-12-24T20:48:25.388Z,6.95
2022-12-24T20:50:57.246Z,6.96
2022-12-24T20:53:29.128Z,6.98
2022-12-24T20:56:01.118Z,7.00
2022-12-24T20:58:33.003Z,7.02
2022-12-24T21:01:11.417Z,7.05
2022-12-24T21:03:43.521Z,7.06
2022-12-24T21:06:17.974Z,7.05
2022-12-24T21:08:52.067Z,7.02
2022-12-24T21:11:42.131Z,7.03
2022-12-24T21:14:14.381Z,7.02
2022-12-24T21:16:46.578Z,7.01
2022-12-24T21:19:21.196Z,6.99
2022-12-24T21:21:53.415Z,7.00
2022-12-24T21:24:25.284Z,7.00
2022-12-24T21:26:57.132Z,7.01
2022-12-24T21:29:28.933Z,7.01
2022-12-24T21:32:00.737Z,6.98
2022-12-24T21:34:32.639Z,6.98
2022-12-24T21:37:04.505Z,6.96
2022-12-24T21:39:36.350Z,6.96
2022-12-24T21:42:08.419Z,6.93
2022-12-24T21:44:40.691Z,6.95
2022-12-24T21:47:12.743Z,6.94
2022-12-24T21:50:02.525Z,6.96
2022-12-24T21:52:34.423Z,6.97
2022-12-24T21:55:06.704Z,6.96
2022-12-24T21:57:56.579Z,6.96
2022-12-24T22:00:30.743Z,7.00
2022-12-24T22:03:02.893Z,7.01
2022-12-24T22:05:35.902Z,7.00
2022-12-24T22:08:25.744Z,6.98
2022-12-24T22:11:26.643Z,6.97
2022-12-24T22:13:58.814Z,6.95
2022-12-24T22:16:31.225Z,6.93
2022-12-24T22:19:03.088Z,6.94
2022-12-24T22:21:34.915Z,6.95
2022-12-24T22:24:09.951Z,6.96
2022-12-24T22:26:41.866Z,6.96
2022-12-24T22:29:14.133Z,6.96
2022-12-24T22:31:46.764Z,6.98
2022-12-24T22:34:18.631Z,6.99
2022-12-24T22:36:50.411Z,7.01
2022-12-24T22:39:22.441Z,6.99
2022-12-24T22:41:57.965Z,7.02
2022-12-24T22:44:29.974Z,7.00
2022-12-24T22:47:01.791Z,6.99
2022-12-24T22:49:33.773Z,6.97
2022-12-24T22:52:05.855Z,6.98
2022-12-24T22:54:38.520Z,6.95
2022-12-24T22:57:10.429Z,6.96
2022-12-24T22:59:42.328Z,6.96
2022-12-24T23:02:14.319Z,6.96
2022-12-24T23:04:46.469Z,6.99
2022-12-24T23:07:18.420Z,7.01
2022-12-24T23:09:50.449Z,7.02
2022-12-24T23:12:42.503Z,7.02
2022-12-24T23:15:16.363Z,7.00
2022-12-24T23:17:51.052Z,7.00
2022-12-24T23:20:23.116Z,7.02
2022-12-24T23:22:54.902Z,7.03
2022-12-24T23:25:27.441Z,7.03
2022-12-24T23:27:59.248Z,7.04
2022-12-24T23:30:32.296Z,7.04
2022-12-24T23:33:04.320Z,7.06
2022-12-24T23:35:36.124Z,7.09
2022-12-24T23:38:08.178Z,7.10
2022-12-24T23:40:42.296Z,7.13
2022-12-24T23:43:14.252Z,7.18
2022-12-24T23:45:51.019Z,7.21
2022-12-24T23:48:23.159Z,7.23
2022-12-24T23:51:03.617Z,7.24
2022-12-24T23:53:35.796Z,7.26
2022-12-24T23:56:10.986Z,7.29
2022-12-24T23:58:44.403Z,7.31
